sensor_id;sensor_type;location;lat;lon;timestamp;P1;durP1;ratioP1;P2;durP2;ratioP2
41986;SDS011;28361;50.740;7.084;2022-08-01T00:01:54;1.52;;;0.70;;
41986;SDS011;28361;50.740;7.084;2022-08-01T00:04:20;1.85;;;0.73;;
41986;SDS011;28361;50.740;7.084;2022-08-01T00:06:47;1.50;;;0.60;;
41986;SDS011;28361;50.740;7.084;2022-08-01T00:09:13;0.52;;;0.50;;
41986;SDS011;28361;50.740;7.084;2022-08-01T00:11:39;1.10;;;0.70;;
41986;SDS011;28361;50.740;7.084;2022-08-01T00:14:04;2.13;;;0.80;;
41986;SDS011;28361;50.740;7.084;2022-08-01T00:16:31;1.05;;;0.90;;
41986;SDS011;28361;50.740;7.084;2022-08-01T00:18:57;1.10;;;0.73;;
41986;SDS011;28361;50.740;7.084;2022-08-01T00:21:22;0.88;;;0.60;;
41986;SDS011;28361;50.740;7.084;2022-08-01T00:23:48;0.77;;;0.65;;
41986;SDS011;28361;50.740;7.084;2022-08-01T00:26:14;2.65;;;0.88;;
41986;SDS011;28361;50.740;7.084;2022-08-01T00:28:40;1.75;;;0.70;;
41986;SDS011;28361;50.740;7.084;2022-08-01T00:31:06;1.50;;;0.70;;
41986;SDS011;28361;50.740;7.084;2022-08-01T00:33:32;1.38;;;0.50;;
41986;SDS011;28361;50.740;7.084;2022-08-01T00:35:58;1.27;;;0.50;;
41986;SDS011;28361;50.740;7.084;2022-08-01T00:38:24;1.50;;;0.70;;
41986;SDS011;28361;50.740;7.084;2022-08-01T00:40:49;1.00;;;0.80;;
41986;SDS011;28361;50.740;7.084;2022-08-01T00:43:15;1.60;;;0.73;;
41986;SDS011;28361;50.740;7.084;2022-08-01T00:45:41;0.98;;;0.50;;
41986;SDS011;28361;50.740;7.084;2022-08-01T00:48:07;3.47;;;0.90;;
41986;SDS011;28361;50.740;7.084;2022-08-01T00:50:33;4.30;;;0.70;;
41986;SDS011;28361;50.740;7.084;2022-08-01T00:53:00;4.75;;;1.05;;
41986;SDS011;28361;50.740;7.084;2022-08-01T00:55:26;2.60;;;0.80;;
41986;SDS011;28361;50.740;7.084;2022-08-01T00:57:53;0.88;;;0.70;;
41986;SDS011;28361;50.740;7.084;2022-08-01T01:00:19;0.70;;;0.60;;
41986;SDS011;28361;50.740;7.084;2022-08-01T01:02:45;2.53;;;0.73;;
41986;SDS011;28361;50.740;7.084;2022-08-01T01:05:11;2.72;;;0.80;;
41986;SDS011;28361;50.740;7.084;2022-08-01T01:10:25;2.15;;;1.23;;
41986;SDS011;28361;50.740;7.084;2022-08-01T01:13:09;0.90;;;0.70;;
41986;SDS011;28361;50.740;7.084;2022-08-01T01:15:41;2.25;;;0.80;;
41986;SDS011;28361;50.740;7.084;2022-08-01T01:18:25;1.20;;;0.73;;
41986;SDS011;28361;50.740;7.084;2022-08-01T01:21:00;1.50;;;0.70;;
41986;SDS011;28361;50.740;7.084;2022-08-01T01:23:44;2.17;;;0.63;;
41986;SDS011;28361;50.740;7.084;2022-08-01T01:32:19;1.58;;;0.75;;
41986;SDS011;28361;50.740;7.084;2022-08-01T01:34:54;0.82;;;0.73;;
41986;SDS011;28361;50.740;7.084;2022-08-01T01:37:22;1.45;;;0.80;;
41986;SDS011;28361;50.740;7.084;2022-08-01T01:39:50;3.90;;;0.80;;
41986;SDS011;28361;50.740;7.084;2022-08-01T01:42:17;1.83;;;0.80;;
41986;SDS011;28361;50.740;7.084;2022-08-01T01:44:44;2.67;;;1.10;;
41986;SDS011;28361;50.740;7.084;2022-08-01T01:47:13;2.25;;;0.90;;
41986;SDS011;28361;50.740;7.084;2022-08-01T01:49:41;1.00;;;0.70;;
41986;SDS011;28361;50.740;7.084;2022-08-01T01:52:11;2.95;;;1.13;;
41986;SDS011;28361;50.740;7.084;2022-08-01T01:54:42;1.53;;;0.80;;
41986;SDS011;28361;50.740;7.084;2022-08-01T01:57:12;1.35;;;0.90;;
41986;SDS011;28361;50.740;7.084;2022-08-01T01:59:39;1.45;;;0.98;;
41986;SDS011;28361;50.740;7.084;2022-08-01T02:02:06;0.88;;;0.80;;
41986;SDS011;28361;50.740;7.084;2022-08-01T02:04:37;1.08;;;0.60;;
41986;SDS011;28361;50.740;7.084;2022-08-01T02:07:09;1.10;;;0.70;;
41986;SDS011;28361;50.740;7.084;2022-08-01T02:09:35;2.03;;;0.85;;
41986;SDS011;28361;50.740;7.084;2022-08-01T02:12:05;2.60;;;0.80;;
41986;SDS011;28361;50.740;7.084;2022-08-01T02:14:32;1.42;;;0.95;;
41986;SDS011;28361;50.740;7.084;2022-08-01T02:17:00;3.03;;;1.60;;
41986;SDS011;28361;50.740;7.084;2022-08-01T02:19:29;2.15;;;0.90;;
41986;SDS011;28361;50.740;7.084;2022-08-01T02:22:04;0.98;;;0.80;;
41986;SDS011;28361;50.740;7.084;2022-08-01T02:27:13;1.23;;;0.80;;
41986;SDS011;28361;50.740;7.084;2022-08-01T02:29:47;1.92;;;0.93;;
41986;SDS011;28361;50.740;7.084;2022-08-01T02:32:30;4.20;;;1.30;;
41986;SDS011;28361;50.740;7.084;2022-08-01T02:35:05;1.77;;;0.88;;
41986;SDS011;28361;50.740;7.084;2022-08-01T02:37:36;1.63;;;1.00;;
41986;SDS011;28361;50.740;7.084;2022-08-01T02:40:04;1.92;;;1.00;;
41986;SDS011;28361;50.740;7.084;2022-08-01T02:42:32;1.00;;;0.90;;
41986;SDS011;28361;50.740;7.084;2022-08-01T02:45:00;1.50;;;0.77;;
41986;SDS011;28361;50.740;7.084;2022-08-01T02:47:29;1.90;;;1.10;;
41986;SDS011;28361;50.740;7.084;2022-08-01T02:49:57;1.70;;;1.27;;
41986;SDS011;28361;50.740;7.084;2022-08-01T02:52:24;1.75;;;1.00;;
41986;SDS011;28361;50.740;7.084;2022-08-01T02:54:51;2.67;;;1.15;;
41986;SDS011;28361;50.740;7.084;2022-08-01T02:57:20;2.60;;;1.08;;
41986;SDS011;28361;50.740;7.084;2022-08-01T02:59:47;1.58;;;1.02;;
41986;SDS011;28361;50.740;7.084;2022-08-01T03:02:14;1.42;;;0.90;;
41986;SDS011;28361;50.740;7.084;2022-08-01T03:04:41;1.33;;;1.00;;
41986;SDS011;28361;50.740;7.084;2022-08-01T03:07:08;3.50;;;1.10;;
41986;SDS011;28361;50.740;7.084;2022-08-01T03:09:36;2.05;;;1.08;;
41986;SDS011;28361;50.740;7.084;2022-08-01T03:12:04;2.42;;;1.00;;
41986;SDS011;28361;50.740;7.084;2022-08-01T03:14:32;3.38;;;0.82;;
41986;SDS011;28361;50.740;7.084;2022-08-01T03:17:00;1.08;;;0.90;;
41986;SDS011;28361;50.740;7.084;2022-08-01T03:19:26;2.75;;;0.90;;
41986;SDS011;28361;50.740;7.084;2022-08-01T03:21:54;2.60;;;1.10;;
41986;SDS011;28361;50.740;7.084;2022-08-01T03:24:23;2.67;;;1.40;;
41986;SDS011;28361;50.740;7.084;2022-08-01T03:26:51;3.67;;;1.08;;
41986;SDS011;28361;50.740;7.084;2022-08-01T03:29:20;1.10;;;0.93;;
41986;SDS011;28361;50.740;7.084;2022-08-01T03:31:49;1.75;;;0.90;;
41986;SDS011;28361;50.740;7.084;2022-08-01T03:34:16;2.25;;;1.20;;
41986;SDS011;28361;50.740;7.084;2022-08-01T03:36:45;1.77;;;1.30;;
41986;SDS011;28361;50.740;7.084;2022-08-01T03:39:13;1.90;;;1.33;;
41986;SDS011;28361;50.740;7.084;2022-08-01T03:41:41;2.22;;;1.23;;
41986;SDS011;28361;50.740;7.084;2022-08-01T03:44:14;2.30;;;1.30;;
41986;SDS011;28361;50.740;7.084;2022-08-01T03:46:50;1.73;;;1.00;;
41986;SDS011;28361;50.740;7.084;2022-08-01T03:49:22;1.67;;;1.35;;
41986;SDS011;28361;50.740;7.084;2022-08-01T03:51:51;2.95;;;1.30;;
41986;SDS011;28361;50.740;7.084;2022-08-01T03:54:23;1.65;;;1.05;;
41986;SDS011;28361;50.740;7.084;2022-08-01T03:56:50;2.08;;;1.30;;
41986;SDS011;28361;50.740;7.084;2022-08-01T03:59:18;3.38;;;1.58;;
41986;SDS011;28361;50.740;7.084;2022-08-01T04:01:45;2.42;;;1.35;;
41986;SDS011;28361;50.740;7.084;2022-08-01T04:04:12;2.33;;;1.33;;
41986;SDS011;28361;50.740;7.084;2022-08-01T04:06:38;3.08;;;1.30;;
41986;SDS011;28361;50.740;7.084;2022-08-01T04:09:06;3.15;;;1.58;;
41986;SDS011;28361;50.740;7.084;2022-08-01T04:11:32;1.67;;;1.25;;
41986;SDS011;28361;50.740;7.084;2022-08-01T04:13:58;2.88;;;1.30;;
41986;SDS011;28361;50.740;7.084;2022-08-01T04:16:24;3.67;;;1.83;;
41986;SDS011;28361;50.740;7.084;2022-08-01T04:18:50;2.40;;;1.20;;
41986;SDS011;28361;50.740;7.084;2022-08-01T04:21:20;1.42;;;1.30;;
41986;SDS011;28361;50.740;7.084;2022-08-01T04:23:50;2.80;;;1.63;;
41986;SDS011;28361;50.740;7.084;2022-08-01T04:26:19;2.45;;;1.50;;
41986;SDS011;28361;50.740;7.084;2022-08-01T04:28:46;2.92;;;1.77;;
41986;SDS011;28361;50.740;7.084;2022-08-01T04:31:15;2.10;;;1.45;;
41986;SDS011;28361;50.740;7.084;2022-08-01T04:33:43;3.13;;;1.70;;
41986;SDS011;28361;50.740;7.084;2022-08-01T04:36:12;4.47;;;2.13;;
41986;SDS011;28361;50.740;7.084;2022-08-01T04:38:42;3.40;;;1.83;;
41986;SDS011;28361;50.740;7.084;2022-08-01T04:41:11;4.13;;;1.85;;
41986;SDS011;28361;50.740;7.084;2022-08-01T04:43:38;3.22;;;1.77;;
41986;SDS011;28361;50.740;7.084;2022-08-01T04:46:05;4.53;;;1.80;;
41986;SDS011;28361;50.740;7.084;2022-08-01T04:48:32;2.72;;;1.88;;
41986;SDS011;28361;50.740;7.084;2022-08-01T04:50:59;2.60;;;1.85;;
41986;SDS011;28361;50.740;7.084;2022-08-01T04:53:26;2.65;;;1.65;;
41986;SDS011;28361;50.740;7.084;2022-08-01T04:55:53;2.33;;;1.67;;
41986;SDS011;28361;50.740;7.084;2022-08-01T04:58:18;3.20;;;1.98;;
41986;SDS011;28361;50.740;7.084;2022-08-01T05:00:45;4.55;;;2.30;;
41986;SDS011;28361;50.740;7.084;2022-08-01T05:03:11;3.55;;;2.00;;
41986;SDS011;28361;50.740;7.084;2022-08-01T05:05:36;2.78;;;2.10;;
41986;SDS011;28361;50.740;7.084;2022-08-01T05:08:02;2.38;;;1.92;;
41986;SDS011;28361;50.740;7.084;2022-08-01T05:10:28;2.55;;;1.90;;
41986;SDS011;28361;50.740;7.084;2022-08-01T05:12:53;2.97;;;2.20;;
41986;SDS011;28361;50.740;7.084;2022-08-01T05:15:19;6.35;;;2.53;;
41986;SDS011;28361;50.740;7.084;2022-08-01T05:17:46;2.88;;;2.03;;
41986;SDS011;28361;50.740;7.084;2022-08-01T05:20:11;4.43;;;2.53;;
41986;SDS011;28361;50.740;7.084;2022-08-01T05:22:37;5.85;;;2.35;;
41986;SDS011;28361;50.740;7.084;2022-08-01T05:25:04;4.18;;;2.50;;
41986;SDS011;28361;50.740;7.084;2022-08-01T05:27:30;4.75;;;2.40;;
41986;SDS011;28361;50.740;7.084;2022-08-01T05:29:56;4.53;;;2.65;;
41986;SDS011;28361;50.740;7.084;2022-08-01T05:32:22;4.93;;;2.42;;
41986;SDS011;28361;50.740;7.084;2022-08-01T05:34:48;5.80;;;3.05;;
41986;SDS011;28361;50.740;7.084;2022-08-01T05:37:14;7.30;;;3.00;;
41986;SDS011;28361;50.740;7.084;2022-08-01T05:39:40;3.75;;;2.92;;
41986;SDS011;28361;50.740;7.084;2022-08-01T05:42:06;5.13;;;3.10;;
41986;SDS011;28361;50.740;7.084;2022-08-01T05:44:32;5.03;;;3.20;;
41986;SDS011;28361;50.740;7.084;2022-08-01T05:46:57;5.55;;;3.40;;
41986;SDS011;28361;50.740;7.084;2022-08-01T05:49:23;4.78;;;3.35;;
41986;SDS011;28361;50.740;7.084;2022-08-01T05:51:49;6.30;;;3.20;;
41986;SDS011;28361;50.740;7.084;2022-08-01T05:54:14;6.93;;;3.90;;
41986;SDS011;28361;50.740;7.084;2022-08-01T05:56:40;4.65;;;3.20;;
41986;SDS011;28361;50.740;7.084;2022-08-01T05:59:06;8.27;;;3.80;;
41986;SDS011;28361;50.740;7.084;2022-08-01T06:01:32;4.10;;;3.47;;
41986;SDS011;28361;50.740;7.084;2022-08-01T06:03:57;8.15;;;3.55;;
41986;SDS011;28361;50.740;7.084;2022-08-01T06:06:23;7.85;;;3.22;;
41986;SDS011;28361;50.740;7.084;2022-08-01T06:08:49;7.05;;;3.42;;
41986;SDS011;28361;50.740;7.084;2022-08-01T06:11:15;6.70;;;3.55;;
41986;SDS011;28361;50.740;7.084;2022-08-01T06:13:41;5.40;;;3.83;;
41986;SDS011;28361;50.740;7.084;2022-08-01T06:16:06;5.85;;;3.15;;
41986;SDS011;28361;50.740;7.084;2022-08-01T06:18:32;4.45;;;3.20;;
41986;SDS011;28361;50.740;7.084;2022-08-01T06:20:58;8.02;;;4.60;;
41986;SDS011;28361;50.740;7.084;2022-08-01T06:23:23;7.53;;;4.57;;
41986;SDS011;28361;50.740;7.084;2022-08-01T06:25:52;8.52;;;4.20;;
41986;SDS011;28361;50.740;7.084;2022-08-01T06:28:19;6.30;;;4.23;;
41986;SDS011;28361;50.740;7.084;2022-08-01T06:30:45;7.80;;;4.00;;
41986;SDS011;28361;50.740;7.084;2022-08-01T06:33:11;8.60;;;3.78;;
41986;SDS011;28361;50.740;7.084;2022-08-01T06:35:37;7.72;;;4.05;;
41986;SDS011;28361;50.740;7.084;2022-08-01T06:38:03;6.07;;;4.13;;
41986;SDS011;28361;50.740;7.084;2022-08-01T06:40:29;6.25;;;4.10;;
41986;SDS011;28361;50.740;7.084;2022-08-01T06:42:56;7.10;;;3.60;;
41986;SDS011;28361;50.740;7.084;2022-08-01T06:45:22;7.07;;;3.88;;
41986;SDS011;28361;50.740;7.084;2022-08-01T06:47:49;8.05;;;3.97;;
41986;SDS011;28361;50.740;7.084;2022-08-01T06:50:15;8.90;;;4.78;;
41986;SDS011;28361;50.740;7.084;2022-08-01T06:52:41;7.40;;;3.95;;
41986;SDS011;28361;50.740;7.084;2022-08-01T06:55:08;5.72;;;4.20;;
41986;SDS011;28361;50.740;7.084;2022-08-01T06:57:34;6.88;;;4.20;;
41986;SDS011;28361;50.740;7.084;2022-08-01T07:00:01;6.22;;;4.25;;
41986;SDS011;28361;50.740;7.084;2022-08-01T07:02:28;9.38;;;4.72;;
41986;SDS011;28361;50.740;7.084;2022-08-01T07:04:54;6.85;;;4.10;;
41986;SDS011;28361;50.740;7.084;2022-08-01T07:07:25;8.45;;;3.95;;
41986;SDS011;28361;50.740;7.084;2022-08-01T07:09:51;9.70;;;4.38;;
41986;SDS011;28361;50.740;7.084;2022-08-01T07:12:17;8.32;;;4.05;;
41986;SDS011;28361;50.740;7.084;2022-08-01T07:14:43;6.18;;;3.85;;
41986;SDS011;28361;50.740;7.084;2022-08-01T07:17:09;9.98;;;4.18;;
41986;SDS011;28361;50.740;7.084;2022-08-01T07:19:35;8.63;;;4.20;;
41986;SDS011;28361;50.740;7.084;2022-08-01T07:22:02;11.50;;;4.85;;
41986;SDS011;28361;50.740;7.084;2022-08-01T07:24:28;9.50;;;4.85;;
41986;SDS011;28361;50.740;7.084;2022-08-01T07:26:54;6.30;;;4.95;;
41986;SDS011;28361;50.740;7.084;2022-08-01T07:29:23;12.57;;;5.50;;
41986;SDS011;28361;50.740;7.084;2022-08-01T07:31:50;10.20;;;5.03;;
41986;SDS011;28361;50.740;7.084;2022-08-01T07:34:16;8.75;;;4.53;;
41986;SDS011;28361;50.740;7.084;2022-08-01T07:36:42;6.53;;;4.65;;
41986;SDS011;28361;50.740;7.084;2022-08-01T07:39:08;7.78;;;4.57;;
41986;SDS011;28361;50.740;7.084;2022-08-01T07:41:34;7.90;;;4.40;;
41986;SDS011;28361;50.740;7.084;2022-08-01T07:44:00;8.77;;;4.75;;
41986;SDS011;28361;50.740;7.084;2022-08-01T07:46:26;7.22;;;4.40;;
41986;SDS011;28361;50.740;7.084;2022-08-01T07:48:52;7.30;;;4.85;;
41986;SDS011;28361;50.740;7.084;2022-08-01T07:51:18;6.03;;;3.97;;
41986;SDS011;28361;50.740;7.084;2022-08-01T07:53:44;6.88;;;4.28;;
41986;SDS011;28361;50.740;7.084;2022-08-01T07:56:10;8.88;;;4.72;;
41986;SDS011;28361;50.740;7.084;2022-08-01T07:58:36;4.80;;;4.00;;
41986;SDS011;28361;50.740;7.084;2022-08-01T08:01:02;7.65;;;4.22;;
41986;SDS011;28361;50.740;7.084;2022-08-01T08:03:28;6.53;;;4.28;;
41986;SDS011;28361;50.740;7.084;2022-08-01T08:05:54;7.25;;;3.75;;
41986;SDS011;28361;50.740;7.084;2022-08-01T08:08:21;5.30;;;3.60;;
41986;SDS011;28361;50.740;7.084;2022-08-01T08:10:48;4.43;;;3.38;;
41986;SDS011;28361;50.740;7.084;2022-08-01T08:13:14;9.50;;;3.38;;
41986;SDS011;28361;50.740;7.084;2022-08-01T08:15:40;5.07;;;3.47;;
41986;SDS011;28361;50.740;7.084;2022-08-01T08:18:06;6.72;;;3.78;;
41986;SDS011;28361;50.740;7.084;2022-08-01T08:20:32;5.22;;;3.30;;
41986;SDS011;28361;50.740;7.084;2022-08-01T08:22:58;5.13;;;3.83;;
41986;SDS011;28361;50.740;7.084;2022-08-01T08:25:24;4.55;;;3.20;;
41986;SDS011;28361;50.740;7.084;2022-08-01T08:27:51;5.65;;;3.67;;
41986;SDS011;28361;50.740;7.084;2022-08-01T08:30:17;5.85;;;3.95;;
41986;SDS011;28361;50.740;7.084;2022-08-01T08:32:43;7.85;;;4.13;;
41986;SDS011;28361;50.740;7.084;2022-08-01T08:35:10;6.32;;;3.95;;
41986;SDS011;28361;50.740;7.084;2022-08-01T08:37:36;6.40;;;3.42;;
41986;SDS011;28361;50.740;7.084;2022-08-01T08:40:03;4.20;;;2.90;;
41986;SDS011;28361;50.740;7.084;2022-08-01T08:42:30;3.90;;;2.38;;
41986;SDS011;28361;50.740;7.084;2022-08-01T08:44:56;3.35;;;2.33;;
41986;SDS011;28361;50.740;7.084;2022-08-01T08:47:22;3.65;;;2.80;;
41986;SDS011;28361;50.740;7.084;2022-08-01T08:49:51;3.35;;;2.38;;
41986;SDS011;28361;50.740;7.084;2022-08-01T08:52:18;4.75;;;2.85;;
41986;SDS011;28361;50.740;7.084;2022-08-01T08:54:45;4.65;;;2.60;;
41986;SDS011;28361;50.740;7.084;2022-08-01T08:57:11;4.10;;;2.63;;
41986;SDS011;28361;50.740;7.084;2022-08-01T08:59:38;3.80;;;2.03;;
41986;SDS011;28361;50.740;7.084;2022-08-01T09:02:05;7.93;;;2.55;;
41986;SDS011;28361;50.740;7.084;2022-08-01T09:04:34;3.60;;;2.45;;
41986;SDS011;28361;50.740;7.084;2022-08-01T09:07:01;3.72;;;1.92;;
41986;SDS011;28361;50.740;7.084;2022-08-01T09:09:29;3.67;;;1.73;;
41986;SDS011;28361;50.740;7.084;2022-08-01T09:11:56;2.83;;;2.15;;
41986;SDS011;28361;50.740;7.084;2022-08-01T09:14:22;2.60;;;1.70;;
41986;SDS011;28361;50.740;7.084;2022-08-01T09:17:02;4.57;;;1.98;;
41986;SDS011;28361;50.740;7.084;2022-08-01T09:19:41;2.15;;;1.70;;
41986;SDS011;28361;50.740;7.084;2022-08-01T09:22:08;8.73;;;2.20;;
41986;SDS011;28361;50.740;7.084;2022-08-01T09:24:35;2.65;;;2.38;;
41986;SDS011;28361;50.740;7.084;2022-08-01T09:27:01;3.17;;;2.00;;
41986;SDS011;28361;50.740;7.084;2022-08-01T09:29:40;1.73;;;1.53;;
41986;SDS011;28361;50.740;7.084;2022-08-01T09:32:07;3.65;;;1.80;;
41986;SDS011;28361;50.740;7.084;2022-08-01T09:34:33;7.13;;;2.20;;
41986;SDS011;28361;50.740;7.084;2022-08-01T09:37:00;3.47;;;1.90;;
41986;SDS011;28361;50.740;7.084;2022-08-01T09:39:30;2.75;;;2.00;;
41986;SDS011;28361;50.740;7.084;2022-08-01T09:41:57;2.78;;;1.67;;
41986;SDS011;28361;50.740;7.084;2022-08-01T09:44:37;3.67;;;1.92;;
41986;SDS011;28361;50.740;7.084;2022-08-01T09:47:03;7.88;;;2.00;;
41986;SDS011;28361;50.740;7.084;2022-08-01T09:49:34;4.90;;;1.70;;
41986;SDS011;28361;50.740;7.084;2022-08-01T09:52:13;2.35;;;1.70;;
41986;SDS011;28361;50.740;7.084;2022-08-01T09:54:40;1.85;;;1.45;;
41986;SDS011;28361;50.740;7.084;2022-08-01T09:57:11;3.70;;;1.67;;
41986;SDS011;28361;50.740;7.084;2022-08-01T09:59:38;2.13;;;1.38;;
41986;SDS011;28361;50.740;7.084;2022-08-01T10:02:07;1.45;;;1.15;;
41986;SDS011;28361;50.740;7.084;2022-08-01T10:04:35;2.92;;;1.38;;
41986;SDS011;28361;50.740;7.084;2022-08-01T10:07:05;3.08;;;1.20;;
41986;SDS011;28361;50.740;7.084;2022-08-01T10:09:33;2.85;;;1.40;;
41986;SDS011;28361;50.740;7.084;2022-08-01T10:12:00;2.67;;;1.30;;
41986;SDS011;28361;50.740;7.084;2022-08-01T10:14:27;3.85;;;1.42;;
41986;SDS011;28361;50.740;7.084;2022-08-01T10:16:54;4.03;;;1.77;;
41986;SDS011;28361;50.740;7.084;2022-08-01T10:19:26;2.90;;;1.60;;
41986;SDS011;28361;50.740;7.084;2022-08-01T10:21:54;3.50;;;1.45;;
41986;SDS011;28361;50.740;7.084;2022-08-01T10:24:20;1.77;;;1.00;;
41986;SDS011;28361;50.740;7.084;2022-08-01T10:26:47;1.55;;;1.00;;
41986;SDS011;28361;50.740;7.084;2022-08-01T10:29:14;1.52;;;1.20;;
41986;SDS011;28361;50.740;7.084;2022-08-01T10:31:43;1.88;;;1.30;;
41986;SDS011;28361;50.740;7.084;2022-08-01T10:34:09;2.47;;;1.88;;
41986;SDS011;28361;50.740;7.084;2022-08-01T10:36:36;4.25;;;2.03;;
41986;SDS011;28361;50.740;7.084;2022-08-01T10:39:06;3.80;;;2.20;;
41986;SDS011;28361;50.740;7.084;2022-08-01T10:41:33;2.65;;;1.75;;
41986;SDS011;28361;50.740;7.084;2022-08-01T10:44:00;3.72;;;2.30;;
41986;SDS011;28361;50.740;7.084;2022-08-01T10:46:28;4.28;;;2.10;;
41986;SDS011;28361;50.740;7.084;2022-08-01T10:49:03;7.45;;;4.68;;
41986;SDS011;28361;50.740;7.084;2022-08-01T10:51:30;3.25;;;2.15;;
41986;SDS011;28361;50.740;7.084;2022-08-01T10:53:56;5.60;;;2.20;;
41986;SDS011;28361;50.740;7.084;2022-08-01T10:56:26;4.33;;;2.20;;
41986;SDS011;28361;50.740;7.084;2022-08-01T10:59:04;2.10;;;1.88;;
41986;SDS011;28361;50.740;7.084;2022-08-01T11:01:30;3.05;;;2.25;;
41986;SDS011;28361;50.740;7.084;2022-08-01T11:09:03;2.30;;;1.58;;
41986;SDS011;28361;50.740;7.084;2022-08-01T11:11:30;1.73;;;1.30;;
41986;SDS011;28361;50.740;7.084;2022-08-01T11:16:38;1.90;;;1.42;;
41986;SDS011;28361;50.740;7.084;2022-08-01T11:19:05;2.25;;;1.50;;
41986;SDS011;28361;50.740;7.084;2022-08-01T11:24:21;2.10;;;1.45;;
41986;SDS011;28361;50.740;7.084;2022-08-01T11:27:21;3.50;;;1.48;;
41986;SDS011;28361;50.740;7.084;2022-08-01T11:32:47;2.30;;;1.40;;
41986;SDS011;28361;50.740;7.084;2022-08-01T11:35:17;3.60;;;1.90;;
41986;SDS011;28361;50.740;7.084;2022-08-01T11:37:44;6.60;;;2.05;;
41986;SDS011;28361;50.740;7.084;2022-08-01T11:40:28;8.65;;;3.75;;
41986;SDS011;28361;50.740;7.084;2022-08-01T11:45:54;4.95;;;2.13;;
41986;SDS011;28361;50.740;7.084;2022-08-01T11:48:21;4.07;;;1.77;;
41986;SDS011;28361;50.740;7.084;2022-08-01T11:50:55;5.25;;;2.08;;
41986;SDS011;28361;50.740;7.084;2022-08-01T11:53:21;3.22;;;1.95;;
41986;SDS011;28361;50.740;7.084;2022-08-01T11:55:51;6.18;;;2.63;;
41986;SDS011;28361;50.740;7.084;2022-08-01T11:58:22;2.97;;;2.03;;
41986;SDS011;28361;50.740;7.084;2022-08-01T12:00:52;2.42;;;2.10;;
41986;SDS011;28361;50.740;7.084;2022-08-01T12:05:52;6.40;;;2.20;;
41986;SDS011;28361;50.740;7.084;2022-08-01T12:08:29;3.95;;;2.00;;
41986;SDS011;28361;50.740;7.084;2022-08-01T12:11:02;3.83;;;1.75;;
41986;SDS011;28361;50.740;7.084;2022-08-01T12:13:38;3.95;;;1.80;;
41986;SDS011;28361;50.740;7.084;2022-08-01T12:16:08;3.28;;;2.20;;
41986;SDS011;28361;50.740;7.084;2022-08-01T12:18:38;3.88;;;2.03;;
41986;SDS011;28361;50.740;7.084;2022-08-01T12:21:06;6.65;;;2.42;;
41986;SDS011;28361;50.740;7.084;2022-08-01T12:23:31;3.65;;;2.50;;
41986;SDS011;28361;50.740;7.084;2022-08-01T12:25:57;4.03;;;2.00;;
41986;SDS011;28361;50.740;7.084;2022-08-01T12:28:23;4.47;;;2.03;;
41986;SDS011;28361;50.740;7.084;2022-08-01T12:30:49;4.40;;;2.53;;
41986;SDS011;28361;50.740;7.084;2022-08-01T12:33:19;6.53;;;2.13;;
41986;SDS011;28361;50.740;7.084;2022-08-01T12:35:46;4.25;;;2.28;;
41986;SDS011;28361;50.740;7.084;2022-08-01T12:38:19;4.43;;;2.63;;
41986;SDS011;28361;50.740;7.084;2022-08-01T12:40:51;6.80;;;2.13;;
41986;SDS011;28361;50.740;7.084;2022-08-01T12:43:18;4.18;;;1.75;;
41986;SDS011;28361;50.740;7.084;2022-08-01T12:45:45;2.67;;;1.88;;
41986;SDS011;28361;50.740;7.084;2022-08-01T12:48:14;3.05;;;1.85;;
41986;SDS011;28361;50.740;7.084;2022-08-01T12:50:42;2.08;;;1.50;;
41986;SDS011;28361;50.740;7.084;2022-08-01T12:53:11;3.67;;;1.65;;
41986;SDS011;28361;50.740;7.084;2022-08-01T12:55:46;3.50;;;1.63;;
41986;SDS011;28361;50.740;7.084;2022-08-01T13:00:46;5.25;;;3.67;;
41986;SDS011;28361;50.740;7.084;2022-08-01T13:03:14;5.30;;;2.20;;
41986;SDS011;28361;50.740;7.084;2022-08-01T13:05:44;4.20;;;1.48;;
41986;SDS011;28361;50.740;7.084;2022-08-01T13:08:14;2.08;;;1.27;;
41986;SDS011;28361;50.740;7.084;2022-08-01T13:10:41;2.85;;;1.38;;
41986;SDS011;28361;50.740;7.084;2022-08-01T13:13:07;2.20;;;1.83;;
41986;SDS011;28361;50.740;7.084;2022-08-01T13:15:35;2.05;;;1.50;;
41986;SDS011;28361;50.740;7.084;2022-08-01T13:20:48;1.60;;;1.02;;
41986;SDS011;28361;50.740;7.084;2022-08-01T13:23:21;1.20;;;1.10;;
41986;SDS011;28361;50.740;7.084;2022-08-01T13:25:47;1.63;;;1.08;;
41986;SDS011;28361;50.740;7.084;2022-08-01T13:28:18;2.22;;;1.00;;
41986;SDS011;28361;50.740;7.084;2022-08-01T13:31:02;1.20;;;1.00;;
41986;SDS011;28361;50.740;7.084;2022-08-01T13:36:24;1.50;;;1.25;;
41986;SDS011;28361;50.740;7.084;2022-08-01T13:38:59;3.65;;;1.85;;
41986;SDS011;28361;50.740;7.084;2022-08-01T13:41:44;1.85;;;1.35;;
41986;SDS011;28361;50.740;7.084;2022-08-01T13:44:11;1.90;;;1.42;;
41986;SDS011;28361;50.740;7.084;2022-08-01T13:46:37;2.63;;;1.58;;
41986;SDS011;28361;50.740;7.084;2022-08-01T13:49:04;4.65;;;1.65;;
41986;SDS011;28361;50.740;7.084;2022-08-01T13:51:30;3.83;;;1.77;;
41986;SDS011;28361;50.740;7.084;2022-08-01T13:53:57;1.83;;;1.60;;
41986;SDS011;28361;50.740;7.084;2022-08-01T13:56:23;4.28;;;2.00;;
41986;SDS011;28361;50.740;7.084;2022-08-01T13:58:49;3.10;;;1.55;;
41986;SDS011;28361;50.740;7.084;2022-08-01T14:01:15;2.08;;;1.42;;
41986;SDS011;28361;50.740;7.084;2022-08-01T14:03:42;2.47;;;1.80;;
41986;SDS011;28361;50.740;7.084;2022-08-01T14:06:07;7.05;;;2.15;;
41986;SDS011;28361;50.740;7.084;2022-08-01T14:08:33;4.45;;;2.10;;
41986;SDS011;28361;50.740;7.084;2022-08-01T14:10:59;3.97;;;1.80;;
41986;SDS011;28361;50.740;7.084;2022-08-01T14:13:27;3.75;;;2.00;;
41986;SDS011;28361;50.740;7.084;2022-08-01T14:15:53;3.97;;;1.70;;
41986;SDS011;28361;50.740;7.084;2022-08-01T14:18:19;1.90;;;1.52;;
41986;SDS011;28361;50.740;7.084;2022-08-01T14:20:45;4.45;;;1.63;;
41986;SDS011;28361;50.740;7.084;2022-08-01T14:23:10;3.83;;;1.50;;
41986;SDS011;28361;50.740;7.084;2022-08-01T14:25:37;3.97;;;1.30;;
41986;SDS011;28361;50.740;7.084;2022-08-01T14:28:03;4.20;;;1.35;;
41986;SDS011;28361;50.740;7.084;2022-08-01T14:30:30;2.63;;;1.35;;
41986;SDS011;28361;50.740;7.084;2022-08-01T14:32:57;1.90;;;1.00;;
41986;SDS011;28361;50.740;7.084;2022-08-01T14:35:23;1.23;;;0.88;;
41986;SDS011;28361;50.740;7.084;2022-08-01T14:37:48;4.80;;;1.08;;
41986;SDS011;28361;50.740;7.084;2022-08-01T14:40:14;1.88;;;1.10;;
41986;SDS011;28361;50.740;7.084;2022-08-01T14:42:40;1.85;;;1.20;;
41986;SDS011;28361;50.740;7.084;2022-08-01T14:45:06;2.05;;;1.17;;
41986;SDS011;28361;50.740;7.084;2022-08-01T14:47:36;3.65;;;1.63;;
41986;SDS011;28361;50.740;7.084;2022-08-01T14:50:04;1.60;;;1.00;;
41986;SDS011;28361;50.740;7.084;2022-08-01T14:52:32;1.23;;;0.98;;
41986;SDS011;28361;50.740;7.084;2022-08-01T14:54:58;2.15;;;1.23;;
41986;SDS011;28361;50.740;7.084;2022-08-01T14:57:24;2.00;;;1.02;;
41986;SDS011;28361;50.740;7.084;2022-08-01T14:59:50;3.28;;;1.15;;
41986;SDS011;28361;50.740;7.084;2022-08-01T15:02:16;2.00;;;1.60;;
41986;SDS011;28361;50.740;7.084;2022-08-01T15:04:45;2.00;;;1.33;;
41986;SDS011;28361;50.740;7.084;2022-08-01T15:07:11;3.30;;;1.80;;
41986;SDS011;28361;50.740;7.084;2022-08-01T15:09:37;1.60;;;1.13;;
41986;SDS011;28361;50.740;7.084;2022-08-01T15:12:03;2.85;;;1.50;;
41986;SDS011;28361;50.740;7.084;2022-08-01T15:14:29;1.80;;;1.23;;
41986;SDS011;28361;50.740;7.084;2022-08-01T15:17:20;2.25;;;1.17;;
41986;SDS011;28361;50.740;7.084;2022-08-01T15:19:47;1.42;;;1.05;;
41986;SDS011;28361;50.740;7.084;2022-08-01T15:22:14;2.03;;;1.00;;
41986;SDS011;28361;50.740;7.084;2022-08-01T15:24:40;1.50;;;1.05;;
41986;SDS011;28361;50.740;7.084;2022-08-01T15:27:06;3.25;;;1.33;;
41986;SDS011;28361;50.740;7.084;2022-08-01T15:29:33;2.33;;;1.33;;
41986;SDS011;28361;50.740;7.084;2022-08-01T15:32:02;4.53;;;1.20;;